sensor_id;sensor_type;location;lat;lon;timestamp;temperature;humidity
52471;DHT22;38382;53.160;7.026;2024-02-21T00:02:18;9.30;99.90
52471;DHT22;38382;53.160;7.026;2024-02-21T00:04:44;9.30;99.90
52471;DHT22;38382;53.160;7.026;2024-02-21T00:07:09;9.20;99.90
52471;DHT22;38382;53.160;7.026;2024-02-21T00:09:35;9.20;99.90
52471;DHT22;38382;53.160;7.026;2024-02-21T00:12:01;9.30;99.90
52471;DHT22;38382;53.160;7.026;2024-02-21T00:14:27;9.30;99.90
52471;DHT22;38382;53.160;7.026;2024-02-21T00:16:52;9.30;99.90
52471;DHT22;38382;53.160;7.026;2024-02-21T00:19:18;9.20;99.90
52471;DHT22;38382;53.160;7.026;2024-02-21T00:21:44;9.20;99.90
52471;DHT22;38382;53.160;7.026;2024-02-21T00:24:09;9.30;99.90
52471;DHT22;38382;53.160;7.026;2024-02-21T00:26:35;9.30;99.90
52471;DHT22;38382;53.160;7.026;2024-02-21T00:29:01;9.20;99.90
52471;DHT22;38382;53.160;7.026;2024-02-21T00:31:26;9.20;99.90
52471;DHT22;38382;53.160;7.026;2024-02-21T00:33:52;9.20;99.90
52471;DHT22;38382;53.160;7.026;2024-02-21T00:36:18;9.20;99.90
52471;DHT22;38382;53.160;7.026;2024-02-21T00:38:43;9.20;99.90
52471;DHT22;38382;53.160;7.026;2024-02-21T00:41:10;9.20;99.90
52471;DHT22;38382;53.160;7.026;2024-02-21T00:43:35;9.10;99.90
52471;DHT22;38382;53.160;7.026;2024-02-21T00:46:01;9.10;99.90
52471;DHT22;38382;53.160;7.026;2024-02-21T00:48:27;9.10;99.90
52471;DHT22;38382;53.160;7.026;2024-02-21T00:50:52;9.10;99.90
52471;DHT22;38382;53.160;7.026;2024-02-21T00:53:18;9.00;99.90
52471;DHT22;38382;53.160;7.026;2024-02-21T00:55:44;9.00;99.90
52471;DHT22;38382;53.160;7.026;2024-02-21T00:58:10;9.00;99.90
52471;DHT22;38382;53.160;7.026;2024-02-21T01:00:35;9.00;99.90
52471;DHT22;38382;53.160;7.026;2024-02-21T01:03:01;9.10;99.90
52471;DHT22;38382;53.160;7.026;2024-02-21T01:05:27;9.00;99.90
52471;DHT22;38382;53.160;7.026;2024-02-21T01:07:54;9.00;99.90
52471;DHT22;38382;53.160;7.026;2024-02-21T01:10:20;8.90;99.90
52471;DHT22;38382;53.160;7.026;2024-02-21T01:12:46;8.90;99.90
52471;DHT22;38382;53.160;7.026;2024-02-21T01:15:11;8.90;99.90
52471;DHT22;38382;53.160;7.026;2024-02-21T01:17:37;8.90;99.90
52471;DHT22;38382;53.160;7.026;2024-02-21T01:20:03;8.90;99.90
52471;DHT22;38382;53.160;7.026;2024-02-21T01:22:31;8.90;99.90
52471;DHT22;38382;53.160;7.026;2024-02-21T01:24:56;8.90;99.90
52471;DHT22;38382;53.160;7.026;2024-02-21T01:27:22;8.80;99.90
52471;DHT22;38382;53.160;7.026;2024-02-21T01:29:48;8.90;99.90
52471;DHT22;38382;53.160;7.026;2024-02-21T01:32:15;8.90;99.90
52471;DHT22;38382;53.160;7.026;2024-02-21T01:34:41;8.90;99.90
52471;DHT22;38382;53.160;7.026;2024-02-21T01:37:07;8.90;99.90
52471;DHT22;38382;53.160;7.026;2024-02-21T01:39:33;8.90;99.90
52471;DHT22;38382;53.160;7.026;2024-02-21T01:41:59;8.80;99.90
52471;DHT22;38382;53.160;7.026;2024-02-21T01:44:25;8.90;99.90
52471;DHT22;38382;53.160;7.026;2024-02-21T01:46:55;8.90;99.90
52471;DHT22;38382;53.160;7.026;2024-02-21T01:49:20;8.90;99.90
52471;DHT22;38382;53.160;7.026;2024-02-21T01:51:47;8.90;99.90
52471;DHT22;38382;53.160;7.026;2024-02-21T01:54:14;8.90;99.90
52471;DHT22;38382;53.160;7.026;2024-02-21T01:56:41;9.00;99.90
52471;DHT22;38382;53.160;7.026;2024-02-21T01:59:07;8.90;99.90
52471;DHT22;38382;53.160;7.026;2024-02-21T02:01:33;8.90;99.90
52471;DHT22;38382;53.160;7.026;2024-02-21T02:03:59;8.90;99.90
52471;DHT22;38382;53.160;7.026;2024-02-21T02:06:25;8.80;99.90
52471;DHT22;38382;53.160;7.026;2024-02-21T02:08:51;8.90;99.90
52471;DHT22;38382;53.160;7.026;2024-02-21T02:11:17;8.90;99.90
52471;DHT22;38382;53.160;7.026;2024-02-21T02:13:42;8.70;99.90
52471;DHT22;38382;53.160;7.026;2024-02-21T02:16:08;8.70;99.90
52471;DHT22;38382;53.160;7.026;2024-02-21T02:18:34;8.80;99.90
52471;DHT22;38382;53.160;7.026;2024-02-21T02:21:00;8.90;99.90
52471;DHT22;38382;53.160;7.026;2024-02-21T02:23:26;8.60;99.90
52471;DHT22;38382;53.160;7.026;2024-02-21T02:25:53;8.60;99.90
52471;DHT22;38382;53.160;7.026;2024-02-21T02:28:19;8.60;99.90
52471;DHT22;38382;53.160;7.026;2024-02-21T02:30:46;8.60;99.90
52471;DHT22;38382;53.160;7.026;2024-02-21T02:33:12;8.60;99.90
52471;DHT22;38382;53.160;7.026;2024-02-21T02:35:38;8.60;99.90
52471;DHT22;38382;53.160;7.026;2024-02-21T02:38:04;8.60;99.90
52471;DHT22;38382;53.160;7.026;2024-02-21T02:40:34;8.60;99.90
52471;DHT22;38382;53.160;7.026;2024-02-21T02:43:00;8.50;99.90
52471;DHT22;38382;53.160;7.026;2024-02-21T02:45:26;8.60;99.90
52471;DHT22;38382;53.160;7.026;2024-02-21T02:47:52;8.50;99.90
52471;DHT22;38382;53.160;7.026;2024-02-21T02:50:19;8.60;99.90
52471;DHT22;38382;53.160;7.026;2024-02-21T02:52:45;8.60;99.90
52471;DHT22;38382;53.160;7.026;2024-02-21T02:55:11;8.50;99.90
52471;DHT22;38382;53.160;7.026;2024-02-21T02:57:37;8.60;99.90
52471;DHT22;38382;53.160;7.026;2024-02-21T03:00:04;8.70;99.90
52471;DHT22;38382;53.160;7.026;2024-02-21T03:02:30;8.50;99.90
52471;DHT22;38382;53.160;7.026;2024-02-21T03:04:57;8.50;99.90
52471;DHT22;38382;53.160;7.026;2024-02-21T03:07:24;8.50;99.90
52471;DHT22;38382;53.160;7.026;2024-02-21T03:09:50;8.60;99.90
52471;DHT22;38382;53.160;7.026;2024-02-21T03:12:16;8.80;99.90
52471;DHT22;38382;53.160;7.026;2024-02-21T03:14:50;8.50;99.90
52471;DHT22;38382;53.160;7.026;2024-02-21T03:17:16;8.60;99.90
52471;DHT22;38382;53.160;7.026;2024-02-21T03:19:41;8.50;99.90
52471;DHT22;38382;53.160;7.026;2024-02-21T03:22:07;8.50;99.90
52471;DHT22;38382;53.160;7.026;2024-02-21T03:24:33;8.50;99.90
52471;DHT22;38382;53.160;7.026;2024-02-21T03:26:59;8.60;99.90
52471;DHT22;38382;53.160;7.026;2024-02-21T03:29:25;8.60;99.90
52471;DHT22;38382;53.160;7.026;2024-02-21T03:31:51;8.50;99.90
52471;DHT22;38382;53.160;7.026;2024-02-21T03:34:16;8.60;99.90
52471;DHT22;38382;53.160;7.026;2024-02-21T03:36:42;8.60;99.90
52471;DHT22;38382;53.160;7.026;2024-02-21T03:39:08;8.60;99.90
52471;DHT22;38382;53.160;7.026;2024-02-21T03:41:35;8.50;99.90
52471;DHT22;38382;53.160;7.026;2024-02-21T03:44:01;8.50;99.90
52471;DHT22;38382;53.160;7.026;2024-02-21T03:46:27;8.40;99.90
52471;DHT22;38382;53.160;7.026;2024-02-21T03:48:53;8.50;99.90
52471;DHT22;38382;53.160;7.026;2024-02-21T03:51:18;8.50;99.90
52471;DHT22;38382;53.160;7.026;2024-02-21T03:53:44;8.50;99.90
52471;DHT22;38382;53.160;7.026;2024-02-21T03:56:10;8.50;99.90
52471;DHT22;38382;53.160;7.026;2024-02-21T03:58:41;8.50;99.90
52471;DHT22;38382;53.160;7.026;2024-02-21T04:01:07;8.50;99.90
52471;DHT22;38382;53.160;7.026;2024-02-21T04:03:33;8.60;99.90
52471;DHT22;38382;53.160;7.026;2024-02-21T04:05:58;8.50;99.90
52471;DHT22;38382;53.160;7.026;2024-02-21T04:08:26;8.50;99.90
52471;DHT22;38382;53.160;7.026;2024-02-21T04:10:51;8.50;99.90
52471;DHT22;38382;53.160;7.026;2024-02-21T04:13:17;8.50;99.90
52471;DHT22;38382;53.160;7.026;2024-02-21T04:15:43;8.50;99.90
52471;DHT22;38382;53.160;7.026;2024-02-21T04:18:08;8.50;99.90
52471;DHT22;38382;53.160;7.026;2024-02-21T04:20:34;8.50;99.90
52471;DHT22;38382;53.160;7.026;2024-02-21T04:23:01;8.40;99.90
52471;DHT22;38382;53.160;7.026;2024-02-21T04:25:26;8.50;99.90
52471;DHT22;38382;53.160;7.026;2024-02-21T04:27:52;8.60;99.90
52471;DHT22;38382;53.160;7.026;2024-02-21T04:30:18;8.50;99.90
52471;DHT22;38382;53.160;7.026;2024-02-21T04:32:43;8.50;99.90
52471;DHT22;38382;53.160;7.026;2024-02-21T04:35:09;8.50;99.90
52471;DHT22;38382;53.160;7.026;2024-02-21T04:37:35;8.40;99.90
52471;DHT22;38382;53.160;7.026;2024-02-21T04:40:01;8.40;99.90
52471;DHT22;38382;53.160;7.026;2024-02-21T04:42:26;8.40;99.90
52471;DHT22;38382;53.160;7.026;2024-02-21T04:44:52;8.40;99.90
52471;DHT22;38382;53.160;7.026;2024-02-21T04:47:19;8.50;99.90
52471;DHT22;38382;53.160;7.026;2024-02-21T04:49:45;8.40;99.90
52471;DHT22;38382;53.160;7.026;2024-02-21T04:52:12;8.50;99.90
52471;DHT22;38382;53.160;7.026;2024-02-21T04:54:38;8.40;99.90
52471;DHT22;38382;53.160;7.026;2024-02-21T04:57:04;8.40;99.90
52471;DHT22;38382;53.160;7.026;2024-02-21T04:59:29;8.40;99.90
52471;DHT22;38382;53.160;7.026;2024-02-21T05:01:55;8.40;99.90
52471;DHT22;38382;53.160;7.026;2024-02-21T05:04:21;8.50;99.90
52471;DHT22;38382;53.160;7.026;2024-02-21T05:06:47;8.40;99.90
52471;DHT22;38382;53.160;7.026;2024-02-21T05:09:12;8.40;99.90
52471;DHT22;38382;53.160;7.026;2024-02-21T05:11:38;8.50;99.90
52471;DHT22;38382;53.160;7.026;2024-02-21T05:14:04;8.50;99.90
52471;DHT22;38382;53.160;7.026;2024-02-21T05:16:31;8.40;99.90
52471;DHT22;38382;53.160;7.026;2024-02-21T05:18:57;8.40;99.90
52471;DHT22;38382;53.160;7.026;2024-02-21T05:21:23;8.40;99.90
52471;DHT22;38382;53.160;7.026;2024-02-21T05:23:54;8.50;99.90
52471;DHT22;38382;53.160;7.026;2024-02-21T05:26:24;8.40;99.90
52471;DHT22;38382;53.160;7.026;2024-02-21T05:28:50;8.40;99.90
52471;DHT22;38382;53.160;7.026;2024-02-21T05:31:17;8.40;99.90
52471;DHT22;38382;53.160;7.026;2024-02-21T05:33:44;8.40;99.90
52471;DHT22;38382;53.160;7.026;2024-02-21T05:36:10;8.50;99.90
52471;DHT22;38382;53.160;7.026;2024-02-21T05:38:36;8.40;99.90
52471;DHT22;38382;53.160;7.026;2024-02-21T05:41:02;8.50;99.90
52471;DHT22;38382;53.160;7.026;2024-02-21T05:43:27;8.50;99.90
52471;DHT22;38382;53.160;7.026;2024-02-21T05:45:53;8.50;99.90
52471;DHT22;38382;53.160;7.026;2024-02-21T05:48:19;8.60;99.90
52471;DHT22;38382;53.160;7.026;2024-02-21T05:50:45;8.40;99.90
52471;DHT22;38382;53.160;7.026;2024-02-21T05:53:10;8.40;99.90
52471;DHT22;38382;53.160;7.026;2024-02-21T05:55:36;8.40;99.90
52471;DHT22;38382;53.160;7.026;2024-02-21T05:58:02;8.50;99.90
52471;DHT22;38382;53.160;7.026;2024-02-21T06:00:28;8.50;99.90
52471;DHT22;38382;53.160;7.026;2024-02-21T06:02:55;8.50;99.90
52471;DHT22;38382;53.160;7.026;2024-02-21T06:05:20;8.50;99.90
52471;DHT22;38382;53.160;7.026;2024-02-21T06:07:46;8.50;99.90
52471;DHT22;38382;53.160;7.026;2024-02-21T06:10:13;8.40;99.90
52471;DHT22;38382;53.160;7.026;2024-02-21T06:12:39;8.40;99.90
52471;DHT22;38382;53.160;7.026;2024-02-21T06:15:05;8.50;99.90
52471;DHT22;38382;53.160;7.026;2024-02-21T06:17:31;8.50;99.90
52471;DHT22;38382;53.160;7.026;2024-02-21T06:19:56;8.50;99.90
52471;DHT22;38382;53.160;7.026;2024-02-21T06:22:22;8.40;99.90
52471;DHT22;38382;53.160;7.026;2024-02-21T06:24:48;8.50;99.90
52471;DHT22;38382;53.160;7.026;2024-02-21T06:27:13;8.50;99.90
52471;DHT22;38382;53.160;7.026;2024-02-21T06:29:41;8.40;99.90
52471;DHT22;38382;53.160;7.026;2024-02-21T06:32:07;8.40;99.90
52471;DHT22;38382;53.160;7.026;2024-02-21T06:34:33;8.50;99.90
52471;DHT22;38382;53.160;7.026;2024-02-21T06:36:59;8.40;99.90
52471;DHT22;38382;53.160;7.026;2024-02-21T06:39:24;8.50;99.90
52471;DHT22;38382;53.160;7.026;2024-02-21T06:41:52;8.50;99.90
52471;DHT22;38382;53.160;7.026;2024-02-21T06:44:19;8.10;99.90
52471;DHT22;38382;53.160;7.026;2024-02-21T06:46:45;8.50;99.90
52471;DHT22;38382;53.160;7.026;2024-02-21T06:49:11;8.40;99.90
52471;DHT22;38382;53.160;7.026;2024-02-21T06:51:43;8.40;99.90
52471;DHT22;38382;53.160;7.026;2024-02-21T06:54:09;8.40;99.90
52471;DHT22;38382;53.160;7.026;2024-02-21T06:56:36;8.30;99.90
52471;DHT22;38382;53.160;7.026;2024-02-21T06:59:02;8.50;99.90
52471;DHT22;38382;53.160;7.026;2024-02-21T07:01:31;8.50;99.90
52471;DHT22;38382;53.160;7.026;2024-02-21T07:03:57;8.40;99.90
52471;DHT22;38382;53.160;7.026;2024-02-21T07:06:23;8.40;99.90
52471;DHT22;38382;53.160;7.026;2024-02-21T07:08:49;8.40;99.90
52471;DHT22;38382;53.160;7.026;2024-02-21T07:11:15;8.40;99.90
52471;DHT22;38382;53.160;7.026;2024-02-21T07:13:41;8.40;99.90
52471;DHT22;38382;53.160;7.026;2024-02-21T07:16:07;8.40;99.90
52471;DHT22;38382;53.160;7.026;2024-02-21T07:18:33;8.30;99.90
52471;DHT22;38382;53.160;7.026;2024-02-21T07:20:59;8.50;99.90
52471;DHT22;38382;53.160;7.026;2024-02-21T07:23:25;8.50;99.90
52471;DHT22;38382;53.160;7.026;2024-02-21T07:25:51;8.40;99.90
52471;DHT22;38382;53.160;7.026;2024-02-21T07:28:16;8.50;99.90
52471;DHT22;38382;53.160;7.026;2024-02-21T07:30:43;8.40;99.90
52471;DHT22;38382;53.160;7.026;2024-02-21T07:33:09;8.40;99.90
52471;DHT22;38382;53.160;7.026;2024-02-21T07:35:35;8.50;99.90
52471;DHT22;38382;53.160;7.026;2024-02-21T07:38:04;8.50;99.90
52471;DHT22;38382;53.160;7.026;2024-02-21T07:40:30;8.40;99.90
52471;DHT22;38382;53.160;7.026;2024-02-21T07:42:56;8.40;99.90
52471;DHT22;38382;53.160;7.026;2024-02-21T07:45:22;8.50;99.90
52471;DHT22;38382;53.160;7.026;2024-02-21T07:47:49;8.50;99.90
52471;DHT22;38382;53.160;7.026;2024-02-21T07:50:15;8.50;99.90
52471;DHT22;38382;53.160;7.026;2024-02-21T07:52:42;8.40;99.90
52471;DHT22;38382;53.160;7.026;2024-02-21T07:55:08;8.50;99.90
52471;DHT22;38382;53.160;7.026;2024-02-21T07:57:35;8.50;99.90
52471;DHT22;38382;53.160;7.026;2024-02-21T08:00:01;8.60;99.90
52471;DHT22;38382;53.160;7.026;2024-02-21T08:02:27;8.50;99.90
52471;DHT22;38382;53.160;7.026;2024-02-21T08:04:53;8.50;99.90
52471;DHT22;38382;53.160;7.026;2024-02-21T08:07:19;8.50;99.90
52471;DHT22;38382;53.160;7.026;2024-02-21T08:09:44;8.50;99.90
52471;DHT22;38382;53.160;7.026;2024-02-21T08:12:10;8.60;99.90
52471;DHT22;38382;53.160;7.026;2024-02-21T08:14:36;8.60;99.90
52471;DHT22;38382;53.160;7.026;2024-02-21T08:17:01;8.60;99.90
52471;DHT22;38382;53.160;7.026;2024-02-21T08:19:29;8.60;99.90
52471;DHT22;38382;53.160;7.026;2024-02-21T08:21:55;8.70;99.90
52471;DHT22;38382;53.160;7.026;2024-02-21T08:24:21;8.70;99.90
52471;DHT22;38382;53.160;7.026;2024-02-21T08:26:48;8.70;99.90
52471;DHT22;38382;53.160;7.026;2024-02-21T08:29:14;8.60;99.90
52471;DHT22;38382;53.160;7.026;2024-02-21T08:31:40;8.70;99.90
52471;DHT22;38382;53.160;7.026;2024-02-21T08:34:05;8.60;99.90
52471;DHT22;38382;53.160;7.026;2024-02-21T08:36:33;8.60;99.90
52471;DHT22;38382;53.160;7.026;2024-02-21T08:38:59;8.80;99.90
52471;DHT22;38382;53.160;7.026;2024-02-21T08:41:25;8.70;99.90
52471;DHT22;38382;53.160;7.026;2024-02-21T08:43:52;8.70;99.90
52471;DHT22;38382;53.160;7.026;2024-02-21T08:46:19;8.60;99.90
52471;DHT22;38382;53.160;7.026;2024-02-21T08:48:46;8.60;99.90
52471;DHT22;38382;53.160;7.026;2024-02-21T08:51:12;8.60;99.90
52471;DHT22;38382;53.160;7.026;2024-02-21T08:53:38;8.60;99.90
52471;DHT22;38382;53.160;7.026;2024-02-21T08:56:04;8.70;99.90
52471;DHT22;38382;53.160;7.026;2024-02-21T08:58:30;8.60;99.90
52471;DHT22;38382;53.160;7.026;2024-02-21T09:00:56;8.70;99.90
52471;DHT22;38382;53.160;7.026;2024-02-21T09:03:22;8.60;99.90
52471;DHT22;38382;53.160;7.026;2024-02-21T09:05:48;8.60;99.90
52471;DHT22;38382;53.160;7.026;2024-02-21T09:08:14;8.70;99.90
52471;DHT22;38382;53.160;7.026;2024-02-21T09:10:40;8.70;99.90
52471;DHT22;38382;53.160;7.026;2024-02-21T09:13:06;8.60;99.90
52471;DHT22;38382;53.160;7.026;2024-02-21T09:15:33;8.70;99.90
52471;DHT22;38382;53.160;7.026;2024-02-21T09:17:59;8.60;99.90
52471;DHT22;38382;53.160;7.026;2024-02-21T09:20:25;8.60;99.90
52471;DHT22;38382;53.160;7.026;2024-02-21T09:22:51;8.70;99.90
52471;DHT22;38382;53.160;7.026;2024-02-21T09:25:18;8.70;99.90
52471;DHT22;38382;53.160;7.026;2024-02-21T09:27:45;8.70;99.90
52471;DHT22;38382;53.160;7.026;2024-02-21T09:30:11;8.70;99.90
52471;DHT22;38382;53.160;7.026;2024-02-21T09:32:38;8.70;99.90
52471;DHT22;38382;53.160;7.026;2024-02-21T09:35:04;8.60;99.90
52471;DHT22;38382;53.160;7.026;2024-02-21T09:37:31;8.70;99.90
52471;DHT22;38382;53.160;7.026;2024-02-21T09:39:57;8.70;99.90
52471;DHT22;38382;53.160;7.026;2024-02-21T09:42:29;8.70;99.90
52471;DHT22;38382;53.160;7.026;2024-02-21T09:44:58;8.70;99.90
52471;DHT22;38382;53.160;7.026;2024-02-21T09:47:30;8.60;99.90
52471;DHT22;38382;53.160;7.026;2024-02-21T09:49:58;8.70;99.90
52471;DHT22;38382;53.160;7.026;2024-02-21T09:52:26;8.60;99.90
52471;DHT22;38382;53.160;7.026;2024-02-21T09:54:53;8.60;99.90
52471;DHT22;38382;53.160;7.026;2024-02-21T09:57:19;8.60;99.90
52471;DHT22;38382;53.160;7.026;2024-02-21T09:59:45;8.60;99.90
52471;DHT22;38382;53.160;7.026;2024-02-21T10:02:11;8.60;99.90
52471;DHT22;38382;53.160;7.026;2024-02-21T10:04:39;8.60;99.90
52471;DHT22;38382;53.160;7.026;2024-02-21T10:07:06;8.70;99.90
52471;DHT22;38382;53.160;7.026;2024-02-21T10:09:32;8.70;99.90
52471;DHT22;38382;53.160;7.026;2024-02-21T10:12:12;8.70;99.90
52471;DHT22;38382;53.160;7.026;2024-02-21T10:14:38;8.80;99.90
52471;DHT22;38382;53.160;7.026;2024-02-21T10:17:04;8.70;99.90
52471;DHT22;38382;53.160;7.026;2024-02-21T10:19:34;8.80;99.90
52471;DHT22;38382;53.160;7.026;2024-02-21T10:24:30;8.80;99.90
52471;DHT22;38382;53.160;7.026;2024-02-21T10:27:05;8.90;99.90
52471;DHT22;38382;53.160;7.026;2024-02-21T10:29:34;8.90;99.90
52471;DHT22;38382;53.160;7.026;2024-02-21T10:32:10;9.00;99.90
52471;DHT22;38382;53.160;7.026;2024-02-21T10:34:38;9.00;99.90
52471;DHT22;38382;53.160;7.026;2024-02-21T10:37:13;9.00;99.90
52471;DHT22;38382;53.160;7.026;2024-02-21T10:39:41;9.10;99.90
52471;DHT22;38382;53.160;7.026;2024-02-21T10:42:07;9.10;99.90
52471;DHT22;38382;53.160;7.026;2024-02-21T10:44:40;9.20;99.90
52471;DHT22;38382;53.160;7.026;2024-02-21T10:47:10;9.20;99.90
52471;DHT22;38382;53.160;7.026;2024-02-21T10:49:40;9.30;99.90
52471;DHT22;38382;53.160;7.026;2024-02-21T10:52:26;9.40;99.90
52471;DHT22;38382;53.160;7.026;2024-02-21T10:55:05;9.50;99.90
52471;DHT22;38382;53.160;7.026;2024-02-21T10:57:36;9.50;99.90
52471;DHT22;38382;53.160;7.026;2024-02-21T11:00:04;9.50;99.90
52471;DHT22;38382;53.160;7.026;2024-02-21T11:02:34;9.60;99.90
52471;DHT22;38382;53.160;7.026;2024-02-21T11:05:01;9.60;99.90
52471;DHT22;38382;53.160;7.026;2024-02-21T11:07:30;9.70;99.90
52471;DHT22;38382;53.160;7.026;2024-02-21T11:09:58;9.70;99.90
52471;DHT22;38382;53.160;7.026;2024-02-21T11:12:25;9.70;99.90
52471;DHT22;38382;53.160;7.026;2024-02-21T11:14:52;9.70;99.90
52471;DHT22;38382;53.160;7.026;2024-02-21T11:17:19;9.60;99.90
52471;DHT22;38382;53.160;7.026;2024-02-21T11:19:47;9.60;99.90
52471;DHT22;38382;53.160;7.026;2024-02-21T11:22:17;9.60;99.90
52471;DHT22;38382;53.160;7.026;2024-02-21T11:24:43;9.60;99.90
52471;DHT22;38382;53.160;7.026;2024-02-21T11:27:09;9.70;99.90
52471;DHT22;38382;53.160;7.026;2024-02-21T11:29:44;9.80;99.90
52471;DHT22;38382;53.160;7.026;2024-02-21T11:32:11;9.90;99.90
52471;DHT22;38382;53.160;7.026;2024-02-21T11:34:39;9.90;99.90
52471;DHT22;38382;53.160;7.026;2024-02-21T11:37:14;9.90;99.90
52471;DHT22;38382;53.160;7.026;2024-02-21T11:39:43;9.90;99.90
52471;DHT22;38382;53.160;7.026;2024-02-21T11:42:09;9.90;99.90
52471;DHT22;38382;53.160;7.026;2024-02-21T11:44:36;9.90;99.90
52471;DHT22;38382;53.160;7.026;2024-02-21T11:47:06;9.80;99.90
52471;DHT22;38382;53.160;7.026;2024-02-21T11:49:37;9.80;99.90
52471;DHT22;38382;53.160;7.026;2024-02-21T11:52:04;9.80;99.90
52471;DHT22;38382;53.160;7.026;2024-02-21T11:54:31;9.80;99.90
52471;DHT22;38382;53.160;7.026;2024-02-21T11:57:01;9.80;99.90
52471;DHT22;38382;53.160;7.026;2024-02-21T11:59:30;9.70;99.90
52471;DHT22;38382;53.160;7.026;2024-02-21T12:02:01;9.70;99.90
52471;DHT22;38382;53.160;7.026;2024-02-21T12:04:29;9.60;99.90
52471;DHT22;38382;53.160;7.026;2024-02-21T12:06:57;9.70;99.90
52471;DHT22;38382;53.160;7.026;2024-02-21T12:09:24;9.70;99.90
52471;DHT22;38382;53.160;7.026;2024-02-21T12:12:01;9.70;99.90
52471;DHT22;38382;53.160;7.026;2024-02-21T12:14:29;9.70;99.90
52471;DHT22;38382;53.160;7.026;2024-02-21T12:16:55;9.70;99.90
52471;DHT22;38382;53.160;7.026;2024-02-21T12:19:21;9.70;99.90
52471;DHT22;38382;53.160;7.026;2024-02-21T12:21:48;9.70;99.90
52471;DHT22;38382;53.160;7.026;2024-02-21T12:24:22;9.70;99.90
52471;DHT22;38382;53.160;7.026;2024-02-21T12:26:55;9.70;99.90
52471;DHT22;38382;53.160;7.026;2024-02-21T12:29:22;9.70;99.90
52471;DHT22;38382;53.160;7.026;2024-02-21T12:31:50;9.70;99.90
52471;DHT22;38382;53.160;7.026;2024-02-21T12:34:23;9.60;99.90
52471;DHT22;38382;53.160;7.026;2024-02-21T12:36:49;9.60;99.90
52471;DHT22;38382;53.160;7.026;2024-02-21T12:39:17;9.70;99.90
52471;DHT22;38382;53.160;7.026;2024-02-21T12:41:43;9.70;99.90
52471;DHT22;38382;53.160;7.026;2024-02-21T12:44:10;9.70;99.90
52471;DHT22;38382;53.160;7.026;2024-02-21T12:46:39;9.80;99.90
52471;DHT22;38382;53.160;7.026;2024-02-21T12:49:08;9.80;99.90
52471;DHT22;38382;53.160;7.026;2024-02-21T12:51:34;9.80;99.90
52471;DHT22;38382;53.160;7.026;2024-02-21T12:54:00;9.80;99.90
52471;DHT22;38382;53.160;7.026;2024-02-21T12:56:26;9.80;99.90
52471;DHT22;38382;53.160;7.026;2024-02-21T12:58:57;9.80;99.90
52471;DHT22;38382;53.160;7.026;2024-02-21T13:01:22;9.80;99.90
52471;DHT22;38382;53.160;7.026;2024-02-21T13:03:49;9.80;99.90
52471;DHT22;38382;53.160;7.026;2024-02-21T13:06:15;9.80;99.90
52471;DHT22;38382;53.160;7.026;2024-02-21T13:08:41;9.80;99.90
52471;DHT22;38382;53.160;7.026;2024-02-21T13:11:07;9.90;99.90
52471;DHT22;38382;53.160;7.026;2024-02-21T13:13:33;9.90;99.90
52471;DHT22;38382;53.160;7.026;2024-02-21T13:15:59;9.80;99.90
52471;DHT22;38382;53.160;7.026;2024-02-21T13:18:25;9.70;99.90
52471;DHT22;38382;53.160;7.026;2024-02-21T13:20:51;9.70;99.90
52471;DHT22;38382;53.160;7.026;2024-02-21T13:23:16;9.70;99.90
52471;DHT22;38382;53.160;7.026;2024-02-21T13:25:42;9.70;99.90
52471;DHT22;38382;53.160;7.026;2024-02-21T13:28:10;9.70;99.90
52471;DHT22;38382;53.160;7.026;2024-02-21T13:30:35;9.70;99.90
52471;DHT22;38382;53.160;7.026;2024-02-21T13:33:01;9.70;99.90
52471;DHT22;38382;53.160;7.026;2024-02-21T13:35:28;9.70;99.90
52471;DHT22;38382;53.160;7.026;2024-02-21T13:37:54;9.70;99.90
52471;DHT22;38382;53.160;7.026;2024-02-21T13:40:20;9.70;99.90
52471;DHT22;38382;53.160;7.026;2024-02-21T13:42:45;9.80;99.90
52471;DHT22;38382;53.160;7.026;2024-02-21T13:45:11;9.80;99.90
52471;DHT22;38382;53.160;7.026;2024-02-21T13:47:37;9.80;99.90
52471;DHT22;38382;53.160;7.026;2024-02-21T13:50:04;9.80;99.90
52471;DHT22;38382;53.160;7.026;2024-02-21T13:52:31;9.90;99.90
52471;DHT22;38382;53.160;7.026;2024-02-21T13:54:57;10.00;99.90
52471;DHT22;38382;53.160;7.026;2024-02-21T13:57:22;10.10;99.90
52471;DHT22;38382;53.160;7.026;2024-02-21T13:59:48;10.10;99.90
52471;DHT22;38382;53.160;7.026;2024-02-21T14:02:14;10.00;99.90
52471;DHT22;38382;53.160;7.026;2024-02-21T14:04:40;10.00;99.90
52471;DHT22;38382;53.160;7.026;2024-02-21T14:07:05;10.00;99.90
52471;DHT22;38382;53.160;7.026;2024-02-21T14:09:31;10.00;99.90
52471;DHT22;38382;53.160;7.026;2024-02-21T14:11:59;10.00;99.90
52471;DHT22;38382;53.160;7.026;2024-02-21T14:14:25;9.90;99.90
52471;DHT22;38382;53.160;7.026;2024-02-21T14:16:51;9.90;99.90
52471;DHT22;38382;53.160;7.026;2024-02-21T14:19:16;9.80;99.90
52471;DHT22;38382;53.160;7.026;2024-02-21T14:21:44;9.80;99.90
52471;DHT22;38382;53.160;7.026;2024-02-21T14:24:10;9.80;99.90
52471;DHT22;38382;53.160;7.026;2024-02-21T14:26:37;9.70;99.90
52471;DHT22;38382;53.160;7.026;2024-02-21T14:29:03;9.70;99.90
52471;DHT22;38382;53.160;7.026;2024-02-21T14:31:32;9.70;99.90
52471;DHT22;38382;53.160;7.026;2024-02-21T14:33:58;9.60;99.90
52471;DHT22;38382;53.160;7.026;2024-02-21T14:36:24;9.60;99.90
52471;DHT22;38382;53.160;7.026;2024-02-21T14:38:49;9.60;99.90
52471;DHT22;38382;53.160;7.026;2024-02-21T14:41:18;9.60;99.90
52471;DHT22;38382;53.160;7.026;2024-02-21T14:43:44;9.60;99.90
52471;DHT22;38382;53.160;7.026;2024-02-21T14:46:09;9.60;99.90
52471;DHT22;38382;53.160;7.026;2024-02-21T14:48:37;9.60;99.90
52471;DHT22;38382;53.160;7.026;2024-02-21T14:51:03;9.60;99.90
52471;DHT22;38382;53.160;7.026;2024-02-21T14:53:30;9.60;99.90
52471;DHT22;38382;53.160;7.026;2024-02-21T14:55:56;9.50;99.90
52471;DHT22;38382;53.160;7.026;2024-02-21T14:58:23;9.40;99.90
52471;DHT22;38382;53.160;7.026;2024-02-21T15:00:49;9.50;99.90
52471;DHT22;38382;53.160;7.026;2024-02-21T15:03:18;9.40;99.90
52471;DHT22;38382;53.160;7.026;2024-02-21T15:05:47;9.40;99.90
52471;DHT22;38382;53.160;7.026;2024-02-21T15:08:13;9.30;99.90
52471;DHT22;38382;53.160;7.026;2024-02-21T15:10:43;9.40;99.90
52471;DHT22;38382;53.160;7.026;2024-02-21T15:13:09;9.30;99.90
52471;DHT22;38382;53.160;7.026;2024-02-21T15:15:34;9.30;99.90
52471;DHT22;38382;53.160;7.026;2024-02-21T15:18:00;9.30;99.90
52471;DHT22;38382;53.160;7.026;2024-02-21T15:20:26;9.30;99.90
52471;DHT22;38382;53.160;7.026;2024-02-21T15:22:53;9.30;99.90
52471;DHT22;38382;53.160;7.026;2024-02-21T15:25:19;9.30;99.90
52471;DHT22;38382;53.160;7.026;2024-02-21T15:27:45;9.40;99.90
52471;DHT22;38382;53.160;7.026;2024-02-21T15:30:12;9.30;99.90
52471;DHT22;38382;53.160;7.026;2024-02-21T15:32:38;9.20;99.90
52471;DHT22;38382;53.160;7.026;2024-02-21T15:35:05;9.20;99.90
52471;DHT22;38382;53.160;7.026;2024-02-21T15:37:35;9.20;99.90
52471;DHT22;38382;53.160;7.026;2024-02-21T15:40:00;9.20;99.90
52471;DHT22;38382;53.160;7.026;2024-02-21T15:42:26;9.20;99.90
52471;DHT22;38382;53.160;7.026;2024-02-21T15:44:52;9.20;99.90